createdAt,value
2018-01-23T00:01:27.940Z,7.90
2018-01-23T00:03:56.161Z,7.90
2018-01-23T00:06:23.617Z,7.90
2018-01-23T00:08:51.166Z,7.90
2018-01-23T00:11:18.616Z,7.90
2018-01-23T00:13:46.069Z,7.90
2018-01-23T00:16:14.283Z,7.90
2018-01-23T00:18:41.741Z,7.90
2018-01-23T00:21:09.297Z,7.80
2018-01-23T00:23:36.749Z,7.80
2018-01-23T00:26:04.211Z,7.80
2018-01-23T00:28:31.664Z,7.80
2018-01-23T00:30:59.873Z,7.80
2018-01-23T00:33:27.340Z,7.80
2018-01-23T00:35:54.788Z,7.80
2018-01-23T00:38:22.260Z,7.80
2018-01-23T00:40:49.711Z,7.80
2018-01-23T00:43:17.179Z,7.80
2018-01-23T00:45:44.636Z,7.70
2018-01-23T00:48:12.108Z,7.70
2018-01-23T00:50:39.565Z,7.70
2018-01-23T00:53:07.033Z,7.70
2018-01-23T00:55:34.496Z,7.70
2018-01-23T00:58:01.956Z,7.70
2018-01-23T01:00:29.405Z,7.70
2018-01-23T01:02:56.856Z,7.70
2018-01-23T01:05:25.072Z,7.70
2018-01-23T01:07:52.536Z,7.70
2018-01-23T01:10:19.990Z,7.60
2018-01-23T01:12:47.448Z,7.70
2018-01-23T01:15:14.888Z,7.70
2018-01-23T01:17:42.336Z,7.70
2018-01-23T01:20:10.561Z,7.60
2018-01-23T01:22:38.017Z,7.70
2018-01-23T01:25:05.466Z,7.70
2018-01-23T01:27:32.923Z,7.70
2018-01-23T01:30:00.372Z,7.70
2018-01-23T01:32:28.625Z,7.70
2018-01-23T01:34:56.102Z,7.60
2018-01-23T01:37:23.544Z,7.70
2018-01-23T01:39:50.988Z,7.60
2018-01-23T01:42:18.434Z,7.60
2018-01-23T01:44:45.891Z,7.60
2018-01-23T01:47:13.338Z,7.60
2018-01-23T01:49:40.796Z,7.60
2018-01-23T01:52:08.244Z,7.60
2018-01-23T01:54:36.464Z,7.60
2018-01-23T01:57:03.913Z,7.50
2018-01-23T01:59:31.376Z,7.50
2018-01-23T02:01:58.820Z,7.60
2018-01-23T02:04:26.273Z,7.50
2018-01-23T02:06:54.500Z,7.50
2018-01-23T02:09:21.953Z,7.50
2018-01-23T02:11:49.402Z,7.50
2018-01-23T02:14:16.860Z,7.50
2018-01-23T02:16:44.320Z,7.50
2018-01-23T02:19:11.785Z,7.50
2018-01-23T02:21:39.228Z,7.50
2018-01-23T02:24:07.457Z,7.50
2018-01-23T02:26:34.906Z,7.50
2018-01-23T02:29:02.372Z,7.50
2018-01-23T02:31:29.827Z,7.50
2018-01-23T02:33:57.287Z,7.40
2018-01-23T02:36:24.740Z,7.40
2018-01-23T02:38:53.216Z,7.50
2018-01-23T02:41:20.692Z,7.50
2018-01-23T02:43:48.152Z,7.50
2018-01-23T02:46:15.629Z,7.50
2018-01-23T02:48:43.072Z,7.50
2018-01-23T02:51:10.525Z,7.50
2018-01-23T02:53:37.969Z,7.40
2018-01-23T02:56:06.202Z,7.50
2018-01-23T02:58:33.655Z,7.50
2018-01-23T03:01:01.109Z,7.50
2018-01-23T03:03:28.563Z,7.40
2018-01-23T03:05:56.023Z,7.40
2018-01-23T03:08:23.482Z,7.40
2018-01-23T03:10:50.929Z,7.50
2018-01-23T03:13:18.399Z,7.40
2018-01-23T03:15:45.856Z,7.40
2018-01-23T03:18:13.300Z,7.40
2018-01-23T03:20:40.762Z,7.40
2018-01-23T03:23:08.979Z,7.40
2018-01-23T03:25:36.445Z,7.40
2018-01-23T03:28:03.898Z,7.50
2018-01-23T03:30:31.353Z,7.50
2018-01-23T03:32:58.804Z,7.50
2018-01-23T03:35:26.271Z,7.50
2018-01-23T03:37:53.728Z,7.50
2018-01-23T03:40:21.197Z,7.50
2018-01-23T03:42:48.653Z,7.50
2018-01-23T03:45:16.114Z,7.40
2018-01-23T03:47:43.568Z,7.40
2018-01-23T03:50:11.037Z,7.40
2018-01-23T03:52:38.481Z,7.40
2018-01-23T03:55:06.709Z,7.40
2018-01-23T03:57:34.172Z,7.30
2018-01-23T04:00:01.623Z,7.40
2018-01-23T04:02:29.090Z,7.40
2018-01-23T04:04:56.545Z,7.40
2018-01-23T04:07:23.996Z,7.40
2018-01-23T04:09:51.452Z,7.40
2018-01-23T04:12:18.905Z,7.40
2018-01-23T04:14:46.364Z,7.40
2018-01-23T04:17:13.831Z,7.40
2018-01-23T04:19:41.297Z,7.40
2018-01-23T04:22:08.752Z,7.30
2018-01-23T04:24:36.215Z,7.40
2018-01-23T04:27:03.668Z,7.30
2018-01-23T04:29:31.888Z,7.20
2018-01-23T04:31:59.368Z,7.20
2018-01-23T04:34:26.820Z,7.20
2018-01-23T04:36:54.280Z,7.20
2018-01-23T04:39:21.733Z,7.20
2018-01-23T04:41:49.193Z,7.10
2018-01-23T04:44:16.651Z,7.10
2018-01-23T04:46:44.111Z,7.10
2018-01-23T04:49:11.556Z,7.10
2018-01-23T04:51:39.020Z,7.10
2018-01-23T04:54:07.396Z,7.10
2018-01-23T04:56:35.617Z,7.00
2018-01-23T04:59:03.056Z,7.00
2018-01-23T05:01:30.515Z,7.00
2018-01-23T05:03:57.964Z,7.00
2018-01-23T05:06:25.420Z,7.00
2018-01-23T05:08:53.626Z,7.00
2018-01-23T05:11:21.081Z,7.00
2018-01-23T05:13:48.528Z,7.00
2018-01-23T05:16:16.748Z,7.00
2018-01-23T05:18:44.208Z,7.00
2018-01-23T05:21:11.656Z,7.00
2018-01-23T05:23:39.111Z,7.00
2018-01-23T05:26:06.572Z,7.00
2018-01-23T05:28:34.024Z,7.00
2018-01-23T05:31:01.472Z,7.00
2018-01-23T05:33:29.704Z,6.90
2018-01-23T05:35:57.145Z,6.90
2018-01-23T05:38:24.607Z,6.80
2018-01-23T05:40:52.065Z,6.80
2018-01-23T05:43:19.533Z,6.80
2018-01-23T05:45:46.977Z,6.80
2018-01-23T05:48:14.423Z,6.70
2018-01-23T05:50:42.641Z,6.70
2018-01-23T05:53:10.095Z,6.70
2018-01-23T05:55:37.551Z,6.70
2018-01-23T05:58:05.013Z,6.70
2018-01-23T06:00:32.477Z,6.70
2018-01-23T06:02:59.948Z,6.70
2018-01-23T06:05:27.410Z,6.70
2018-01-23T06:07:54.863Z,6.70
2018-01-23T06:10:22.316Z,6.70
2018-01-23T06:12:49.777Z,6.70
2018-01-23T06:15:17.234Z,6.70
2018-01-23T06:17:45.469Z,6.60
2018-01-23T06:20:12.918Z,6.70
2018-01-23T06:22:40.374Z,6.70
2018-01-23T06:25:07.828Z,6.70
2018-01-23T06:27:35.301Z,6.70
2018-01-23T06:30:02.747Z,6.60
2018-01-23T06:32:30.199Z,6.60
2018-01-23T06:34:57.643Z,6.60
2018-01-23T06:37:25.877Z,6.70
2018-01-23T06:39:53.336Z,6.60
2018-01-23T06:42:20.800Z,6.70
2018-01-23T06:44:48.273Z,6.70
2018-01-23T06:47:15.725Z,6.70
2018-01-23T06:49:43.181Z,6.70
2018-01-23T06:52:10.617Z,6.70
2018-01-23T06:54:38.081Z,6.70
2018-01-23T06:57:05.528Z,6.70
2018-01-23T06:59:32.985Z,6.70
2018-01-23T07:02:01.200Z,6.70
2018-01-23T07:04:28.652Z,6.70
2018-01-23T07:06:56.108Z,6.70
2018-01-23T07:09:23.573Z,6.70
2018-01-23T07:11:51.011Z,6.70
2018-01-23T07:14:19.261Z,6.70
2018-01-23T07:16:46.738Z,6.70
2018-01-23T07:19:14.192Z,6.70
2018-01-23T07:21:41.656Z,6.70
2018-01-23T07:24:09.118Z,6.70
2018-01-23T07:26:36.571Z,6.70
2018-01-23T07:29:04.042Z,6.70
2018-01-23T07:31:31.489Z,6.70
2018-01-23T07:33:58.960Z,6.70
2018-01-23T07:36:26.421Z,6.70
2018-01-23T07:38:53.873Z,6.70
2018-01-23T07:41:21.317Z,6.70
2018-01-23T07:43:48.768Z,6.70
2018-01-23T07:46:16.241Z,6.70
2018-01-23T07:48:43.687Z,6.70
2018-01-23T07:51:11.204Z,6.70
2018-01-23T07:53:38.659Z,6.70
2018-01-23T07:56:06.125Z,6.70
2018-01-23T07:58:33.584Z,6.70
2018-01-23T08:01:01.052Z,6.70
2018-01-23T08:03:28.514Z,6.70
2018-01-23T08:05:55.963Z,6.80
2018-01-23T08:08:24.182Z,6.80
2018-01-23T08:10:52.409Z,6.80
2018-01-23T08:13:19.877Z,6.80
2018-01-23T08:15:47.340Z,6.80
2018-01-23T08:18:14.898Z,6.80
2018-01-23T08:20:42.344Z,6.80
2018-01-23T08:23:09.808Z,6.80
2018-01-23T08:25:37.288Z,6.90
2018-01-23T08:28:04.738Z,6.90
2018-01-23T08:30:32.196Z,6.90
2018-01-23T08:32:59.651Z,6.90
2018-01-23T08:35:27.112Z,6.90
2018-01-23T08:37:54.569Z,6.90
2018-01-23T08:40:22.045Z,6.90
2018-01-23T08:42:49.491Z,6.90
2018-01-23T08:45:16.957Z,7.00
2018-01-23T08:47:44.423Z,7.00
2018-01-23T08:50:11.869Z,6.90
2018-01-23T08:52:39.324Z,6.90
2018-01-23T08:57:42.164Z,7.00
2018-01-23T09:00:09.632Z,7.00
2018-01-23T09:02:37.088Z,7.00
2018-01-23T09:05:04.546Z,7.00
2018-01-23T09:07:32.001Z,7.00
2018-01-23T09:09:59.439Z,7.00
2018-01-23T09:12:27.670Z,7.10
2018-01-23T09:14:55.100Z,7.00
2018-01-23T09:17:22.572Z,7.10
2018-01-23T09:19:50.025Z,7.10
2018-01-23T09:22:17.488Z,7.10
2018-01-23T09:24:44.943Z,7.10
2018-01-23T09:27:12.398Z,7.10
2018-01-23T09:29:40.618Z,7.10
2018-01-23T09:32:08.073Z,7.10
2018-01-23T09:34:35.528Z,7.10
2018-01-23T09:37:02.984Z,7.10
2018-01-23T09:39:30.439Z,7.10
2018-01-23T09:41:57.911Z,7.10
2018-01-23T09:44:25.364Z,7.20
2018-01-23T09:46:52.830Z,7.10
2018-01-23T09:49:20.287Z,7.10
2018-01-23T09:51:47.749Z,7.20
2018-01-23T09:54:15.188Z,7.20
2018-01-23T09:56:43.432Z,7.20
2018-01-23T09:59:10.893Z,7.20
2018-01-23T10:01:38.348Z,7.20
2018-01-23T10:04:05.814Z,7.20
2018-01-23T10:06:33.257Z,7.20
2018-01-23T10:09:00.721Z,7.30
2018-01-23T10:11:28.180Z,7.30
2018-01-23T10:13:55.732Z,7.30
2018-01-23T10:16:23.170Z,7.30
2018-01-23T10:18:51.405Z,7.40
2018-01-23T10:21:18.863Z,7.40
2018-01-23T10:23:46.312Z,7.70
2018-01-23T10:26:13.796Z,7.60
2018-01-23T10:28:42.044Z,7.70
2018-01-23T10:31:09.501Z,7.70
2018-01-23T10:33:36.966Z,7.70
2018-01-23T10:36:04.428Z,7.60
2018-01-23T10:38:31.895Z,7.50
2018-01-23T10:40:59.352Z,7.50
2018-01-23T10:43:26.814Z,7.50
2018-01-23T10:45:54.276Z,7.50
2018-01-23T10:48:21.711Z,7.50
2018-01-23T10:50:49.933Z,7.50
2018-01-23T10:53:17.385Z,7.50
2018-01-23T10:55:44.825Z,7.50
2018-01-23T10:58:13.056Z,7.60
2018-01-23T11:00:46.115Z,7.60
2018-01-23T11:03:13.576Z,7.70
2018-01-23T11:05:42.180Z,7.70
2018-01-23T11:08:09.639Z,7.80
2018-01-23T11:10:37.096Z,7.80
2018-01-23T11:13:04.551Z,7.80
2018-01-23T11:15:32.012Z,7.80
2018-01-23T11:17:59.480Z,7.90
2018-01-23T11:20:26.940Z,7.90
2018-01-23T11:22:54.388Z,7.90
2018-01-23T11:25:21.864Z,8.00
2018-01-23T11:27:49.309Z,8.00
2018-01-23T11:30:16.784Z,8.00
2018-01-23T11:32:44.246Z,8.00
2018-01-23T11:35:11.709Z,8.10
2018-01-23T11:37:39.153Z,8.10
2018-01-23T11:40:07.369Z,8.10
2018-01-23T11:42:34.823Z,8.10
2018-01-23T11:45:02.282Z,8.10
2018-01-23T11:47:29.740Z,8.10
2018-01-23T11:49:57.208Z,8.20
2018-01-23T11:52:24.663Z,8.20
2018-01-23T11:54:52.124Z,8.20
2018-01-23T11:57:19.585Z,8.20
2018-01-23T11:59:47.052Z,8.20
2018-01-23T12:02:14.506Z,8.20
2018-01-23T12:04:41.951Z,8.20
2018-01-23T12:07:10.183Z,8.30
2018-01-23T12:09:37.633Z,8.30
2018-01-23T12:12:05.076Z,8.30
2018-01-23T12:14:32.530Z,8.40
2018-01-23T12:16:59.978Z,8.40
2018-01-23T12:19:28.212Z,8.40
2018-01-23T12:21:55.663Z,8.40
2018-01-23T12:24:23.128Z,8.40
2018-01-23T12:26:50.579Z,8.40
2018-01-23T12:29:18.036Z,8.50
2018-01-23T12:31:45.492Z,8.50
2018-01-23T12:34:12.960Z,8.50
2018-01-23T12:36:40.419Z,8.50
2018-01-23T12:39:07.892Z,8.50
2018-01-23T12:41:39.208Z,8.50
2018-01-23T12:44:07.424Z,8.50
2018-01-23T12:46:34.884Z,8.50
2018-01-23T12:49:02.333Z,8.50
2018-01-23T12:51:29.799Z,8.50
2018-01-23T12:54:00.812Z,8.50
2018-01-23T12:56:29.021Z,8.50
2018-01-23T12:58:56.481Z,8.50
2018-01-23T13:01:23.940Z,8.50
2018-01-23T13:03:51.483Z,8.50
2018-01-23T13:06:19.047Z,8.50
2018-01-23T13:08:47.400Z,8.50
2018-01-23T13:11:14.867Z,8.50
2018-01-23T13:13:42.353Z,8.50
2018-01-23T13:16:10.601Z,8.50
2018-01-23T13:18:38.072Z,8.50
2018-01-23T13:21:05.533Z,8.50
2018-01-23T13:23:32.992Z,8.50
2018-01-23T13:26:00.462Z,8.50
2018-01-23T13:28:27.916Z,8.50
2018-01-23T13:30:55.380Z,8.50
2018-01-23T13:33:24.852Z,8.50
2018-01-23T13:35:52.322Z,8.50
2018-01-23T13:38:19.772Z,8.50
2018-01-23T13:40:47.233Z,8.50
2018-01-23T13:43:14.696Z,8.50
2018-01-23T13:45:42.191Z,8.50
2018-01-23T13:48:09.641Z,8.50
2018-01-23T13:50:37.097Z,8.50
2018-01-23T13:53:04.643Z,8.50
2018-01-23T13:55:32.097Z,8.50
2018-01-23T13:57:59.573Z,8.50
2018-01-23T14:00:27.037Z,8.50
2018-01-23T14:02:54.505Z,8.50
2018-01-23T14:05:21.966Z,8.50
2018-01-23T14:07:49.434Z,8.50
2018-01-23T14:10:16.992Z,8.50
2018-01-23T14:12:44.445Z,8.50
2018-01-23T14:15:11.905Z,8.50
2018-01-23T14:17:39.366Z,8.50
2018-01-23T14:20:06.807Z,8.50
2018-01-23T14:22:35.035Z,8.50
2018-01-23T14:25:02.500Z,8.50
2018-01-23T14:27:29.968Z,8.50
2018-01-23T14:29:57.435Z,8.50
2018-01-23T14:32:24.910Z,8.50
2018-01-23T14:34:52.363Z,8.50
2018-01-23T14:37:19.822Z,8.50
2018-01-23T14:39:47.275Z,8.60
2018-01-23T14:42:14.755Z,8.60
2018-01-23T14:44:42.206Z,8.50
2018-01-23T14:47:09.660Z,8.50
2018-01-23T14:49:37.121Z,8.60
2018-01-23T14:52:04.579Z,8.50
2018-01-23T14:54:32.045Z,8.60
2018-01-23T14:56:59.504Z,8.60
2018-01-23T14:59:26.967Z,8.60
2018-01-23T15:01:54.437Z,8.60
2018-01-23T15:04:21.905Z,8.60
2018-01-23T15:06:49.375Z,8.60
2018-01-23T15:09:16.825Z,8.60
2018-01-23T15:11:44.280Z,8.60
2018-01-23T15:14:11.749Z,8.60
2018-01-23T15:16:39.197Z,8.60
2018-01-23T15:19:06.665Z,8.60
2018-01-23T15:21:34.117Z,8.60
2018-01-23T15:24:01.572Z,8.60
2018-01-23T15:26:29.030Z,8.60
2018-01-23T15:28:56.495Z,8.50
2018-01-23T15:31:23.964Z,8.60
2018-01-23T15:33:51.422Z,8.50
2018-01-23T15:36:18.979Z,8.50
2018-01-23T15:38:46.421Z,8.50
2018-01-23T15:41:14.643Z,8.50
2018-01-23T15:43:42.101Z,8.50
2018-01-23T15:46:09.567Z,8.50
2018-01-23T15:48:37.037Z,8.50
2018-01-23T15:51:04.496Z,8.50
2018-01-23T15:56:23.908Z,8.50
2018-01-23T15:58:51.364Z,8.50
2018-01-23T16:01:18.833Z,8.50
2018-01-23T16:03:46.280Z,8.50
2018-01-23T16:06:13.803Z,8.50
2018-01-23T16:08:41.265Z,8.50
2018-01-23T16:11:08.732Z,8.50
2018-01-23T16:13:36.201Z,8.50
2018-01-23T16:16:03.652Z,8.50
2018-01-23T16:18:31.117Z,8.50
2018-01-23T16:20:58.569Z,8.40
2018-01-23T16:23:26.029Z,8.50
2018-01-23T16:25:53.484Z,8.50
2018-01-23T16:28:21.720Z,8.50
2018-01-23T16:30:49.184Z,8.50
2018-01-23T16:33:16.644Z,8.40
2018-01-23T16:35:44.099Z,8.50
2018-01-23T16:38:11.569Z,8.50
2018-01-23T16:40:39.029Z,8.40
2018-01-23T16:43:06.479Z,8.40
2018-01-23T16:45:33.944Z,8.30
2018-01-23T16:48:01.399Z,8.30
2018-01-23T16:50:28.865Z,8.20
2018-01-23T16:52:56.317Z,8.20
2018-01-23T16:55:23.781Z,8.20
2018-01-23T16:57:51.237Z,8.10
2018-01-23T17:00:18.704Z,8.10
2018-01-23T17:02:47.165Z,8.10
2018-01-23T17:05:14.646Z,8.00
2018-01-23T17:07:42.095Z,8.00
2018-01-23T17:10:09.545Z,8.00
2018-01-23T17:12:37.794Z,7.90
2018-01-23T17:15:05.257Z,7.90
2018-01-23T17:17:32.712Z,7.90
2018-01-23T17:20:00.183Z,8.00
2018-01-23T17:22:27.648Z,7.90
2018-01-23T17:24:55.111Z,7.90
2018-01-23T17:27:22.556Z,7.90
2018-01-23T17:29:50.769Z,7.80
2018-01-23T17:32:19.000Z,7.70
2018-01-23T17:34:46.474Z,7.70
2018-01-23T17:37:13.934Z,7.80
2018-01-23T17:39:41.392Z,7.70
2018-01-23T17:42:08.849Z,7.70
2018-01-23T17:44:36.313Z,7.70
2018-01-23T17:47:03.788Z,7.60
2018-01-23T17:49:31.297Z,7.60
2018-01-23T17:51:59.526Z,7.60
2018-01-23T17:54:26.981Z,7.60
2018-01-23T17:56:54.457Z,7.50
2018-01-23T17:59:21.903Z,7.50
2018-01-23T18:01:49.380Z,7.60
2018-01-23T18:04:16.834Z,7.70
2018-01-23T18:06:44.292Z,7.60
2018-01-23T18:09:11.775Z,7.60
2018-01-23T18:11:39.234Z,7.50
2018-01-23T18:14:10.355Z,7.40
2018-01-23T18:16:37.816Z,7.40
2018-01-23T18:19:05.276Z,7.40
2018-01-23T18:21:32.736Z,7.30
2018-01-23T18:24:00.231Z,7.30
2018-01-23T18:26:27.745Z,7.20
2018-01-23T18:28:55.217Z,7.20
2018-01-23T18:31:22.677Z,7.20
2018-01-23T18:33:50.131Z,7.30
2018-01-23T18:36:17.656Z,7.20
2018-01-23T18:38:45.088Z,7.20
2018-01-23T18:41:12.603Z,7.10
2018-01-23T18:43:40.818Z,7.20
2018-01-23T18:46:08.340Z,7.20
2018-01-23T18:48:35.817Z,7.10
2018-01-23T18:51:03.240Z,7.10
2018-01-23T18:53:30.701Z,7.00
2018-01-23T18:55:58.154Z,7.00
2018-01-23T18:58:25.661Z,7.00
2018-01-23T19:00:53.907Z,6.90
2018-01-23T19:03:21.388Z,7.00
2018-01-23T19:05:48.884Z,7.00
2018-01-23T19:08:16.323Z,7.00
2018-01-23T19:10:44.593Z,7.00
2018-01-23T19:13:12.037Z,7.00
2018-01-23T19:15:39.525Z,7.00
2018-01-23T19:18:06.980Z,6.90
2018-01-23T19:20:34.475Z,6.90
2018-01-23T19:23:01.978Z,6.90
2018-01-23T19:25:29.462Z,7.00
2018-01-23T19:27:59.004Z,7.00
2018-01-23T19:30:27.214Z,7.10
2018-01-23T19:32:54.728Z,7.10
2018-01-23T19:35:22.173Z,7.10
2018-01-23T19:37:49.691Z,7.10
2018-01-23T19:40:17.185Z,7.10
2018-01-23T19:42:44.680Z,7.10
2018-01-23T19:45:12.167Z,7.30
2018-01-23T19:47:40.379Z,7.30
2018-01-23T19:50:08.693Z,7.30
2018-01-23T19:52:36.146Z,7.30
2018-01-23T19:55:03.638Z,7.30
2018-01-23T19:57:31.135Z,7.40
2018-01-23T19:59:58.623Z,7.40
2018-01-23T20:02:26.128Z,7.40
2018-01-23T20:04:54.379Z,7.40
2018-01-23T20:07:21.822Z,7.40
2018-01-23T20:09:49.263Z,7.40
2018-01-23T20:12:16.715Z,7.40
2018-01-23T20:14:44.215Z,7.50
2018-01-23T20:17:11.652Z,7.50
2018-01-23T20:19:39.112Z,7.50
2018-01-23T20:22:06.571Z,7.50
2018-01-23T20:24:34.027Z,7.60
2018-01-23T20:27:01.536Z,7.50
2018-01-23T20:29:29.791Z,7.60
2018-01-23T20:31:57.270Z,7.50
2018-01-23T20:34:24.772Z,7.50
2018-01-23T20:36:52.977Z,7.70
2018-01-23T20:39:20.423Z,7.60
2018-01-23T20:41:47.878Z,7.60
2018-01-23T20:44:16.151Z,7.60
2018-01-23T20:46:43.600Z,7.60
2018-01-23T20:49:11.095Z,7.70
2018-01-23T20:51:39.352Z,7.80
2018-01-23T20:54:06.822Z,7.70
2018-01-23T20:56:35.034Z,7.70
2018-01-23T20:59:02.506Z,7.70
2018-01-23T21:01:29.953Z,7.80
2018-01-23T21:03:57.456Z,7.80
2018-01-23T21:06:24.955Z,7.70
2018-01-23T21:08:52.460Z,7.80
2018-01-23T21:11:19.904Z,7.80
2018-01-23T21:13:47.416Z,7.80
2018-01-23T21:16:14.860Z,7.90
2018-01-23T21:18:42.363Z,7.80
2018-01-23T21:21:09.853Z,7.80
2018-01-23T21:23:37.359Z,7.80
2018-01-23T21:26:05.620Z,7.90
2018-01-23T21:28:33.066Z,7.80
2018-01-23T21:31:00.513Z,7.80
2018-01-23T21:33:28.007Z,7.80
2018-01-23T21:35:55.495Z,7.80
2018-01-23T21:38:22.980Z,7.80
2018-01-23T21:40:50.425Z,7.80
2018-01-23T21:43:18.844Z,7.90
2018-01-23T21:45:47.068Z,7.80
2018-01-23T21:48:15.336Z,7.80
2018-01-23T21:50:42.831Z,7.80
2018-01-23T21:53:10.312Z,7.90
2018-01-23T21:55:37.780Z,7.90
2018-01-23T21:58:06.048Z,7.70
2018-01-23T22:00:33.545Z,7.70
2018-01-23T22:03:00.986Z,7.80
2018-01-23T22:05:29.309Z,7.70
2018-01-23T22:07:56.780Z,7.70
2018-01-23T22:10:24.270Z,7.80
2018-01-23T22:12:51.789Z,7.80
2018-01-23T22:15:19.248Z,7.80
2018-01-23T22:17:46.692Z,7.90
2018-01-23T22:20:14.996Z,7.90
2018-01-23T22:22:42.437Z,7.90
2018-01-23T22:25:09.891Z,7.80
2018-01-23T22:27:38.105Z,7.80
2018-01-23T22:30:05.558Z,7.80
2018-01-23T22:32:33.006Z,7.80
2018-01-23T22:35:00.493Z,7.80
2018-01-23T22:37:27.986Z,7.80
2018-01-23T22:39:56.408Z,7.80
2018-01-23T22:42:24.632Z,7.90
2018-01-23T22:44:52.081Z,7.80
2018-01-23T22:47:19.535Z,7.90
2018-01-23T22:49:46.993Z,7.90
2018-01-23T22:52:14.456Z,7.90
2018-01-23T22:54:41.903Z,7.80
2018-01-23T22:57:10.122Z,7.90
2018-01-23T22:59:37.564Z,7.80
2018-01-23T23:02:05.799Z,7.90
2018-01-23T23:04:33.249Z,7.90
2018-01-23T23:07:00.709Z,7.90
2018-01-23T23:09:28.159Z,8.00
2018-01-23T23:11:55.611Z,8.00
2018-01-23T23:14:23.064Z,8.00
2018-01-23T23:16:50.542Z,8.00
2018-01-23T23:19:17.981Z,8.00
2018-01-23T23:21:46.199Z,8.10
2018-01-23T23:24:13.662Z,8.10
2018-01-23T23:26:41.135Z,8.10
2018-01-23T23:29:08.572Z,8.10
2018-01-23T23:31:36.049Z,8.10
2018-01-23T23:34:03.505Z,8.20
2018-01-23T23:36:30.957Z,8.20
2018-01-23T23:38:58.415Z,8.20
2018-01-23T23:41:25.880Z,8.30
2018-01-23T23:43:53.326Z,8.20
2018-01-23T23:46:20.776Z,8.20
2018-01-23T23:48:48.992Z,8.20
2018-01-23T23:51:16.448Z,8.20
2018-01-23T23:53:43.907Z,8.20
2018-01-23T23:56:11.357Z,8.10
2018-01-23T23:58:38.808Z,8.10
